Airfield :
LOGIN :

Register | Disclaimer

   EN    FR    IT 

 










Legend :    VFR   Marginal VFR   IFR   Intensive IFR   Very Intensive IFR
Visi :
Ceiling :
>= 8 km
>= 3000ft
5 to 8 km
1000 to 3000 ft
1500m to 5 km
500 to 1000 ft
800 to 1500m
200 to 500 ft
< 800m
< 200 ft
Symbols :   Thunderstorms  Fog  Heavy snow  Heavy precipitations  Wind > 20 kt
SIGMETs :     Misc.  Thunderstorms  Icing  Turbulence  Mountain Waves  Volcanic Ashes






- Airport Elevation : 348 ft
- IATA code : LDV


LFRJ - Landivisiau

CURRENT METAR :
  • 080300Z AUTO 21010KT 9999 FEW037 BKN180 OVC220 04/02 Q0995

EXPIRED METARs :
  • 080230Z AUTO 21012KT 9999 -RADZ FEW034 SCT050 BKN072 04/03 Q0995
  • 080200Z AUTO 21008KT 9999 -RA SCT039 SCT052 BKN070 03/02 Q0995
  • 080130Z AUTO 28014G30KT 5000 -RA BR BKN021 BKN041 BKN064 04/02 Q0995
  • 080100Z AUTO 24012KT 9999 SCT035 BKN049 BKN066 05/01 Q0994
  • 080030Z AUTO 22012KT 9999 FEW017 SCT042 04/03 Q0995

TAF TAF LFRJ
Valid from the 07 at 21:00 until the 08 at 06:00 UTC


072000Z 0721/0806 23015KT 9999 SCT040
TEMPO 0721/0806 25025G35KT 4000 SHRA BKN020CB
PROB40
TEMPO 0721/0806 25030G45KT 2000 TSRAGS



MET'MAP, your aeronautical weather chart ! - Copyright ORBIFLY December 2007 - Disclaimer

ORBIFLY MET'MAP TEAM :

Programming & Development : Alexandra Zaïnal
Concept & original design : Baudouin d'Aumeries
Assistance for programming : Marc-Olivier Méhu
Technical & hardware support : Manuel Goepfert

Contact : metmap@orbifly.com




SOURCES & CREDITS :

   NOAA